No.16 Zen Maru — JJ3834 — position and weather

sailwx.info

Track history (hours):
 
Tides and Currents Weather Stations Pressure Air Temp Water Temp Dewpoint Dewpoint Depression Visibility Wind Speed Wind Dir Waves Ship Positions

No.16 Zen Maru

Last reported at 2018-Feb-20 03:28 UTC. Time now 2018-Feb-20 03:53 UTC.
Position N 34°42' E 135°14'.

Length 70 m.

Type: Ship. MMSI: 431300421.

Date/timePositionNaut miles runAvg speedWind from/ knotsBaromVisibWave heightAir tempDewpointWater temp
2018-Feb-20 03:28N 34°42' E 135°14'0 0.0
2018-Feb-20 02:58N 34°42' E 135°14'0 0.0
2018-Feb-20 02:28N 34°42' E 135°14'0 0.0
2018-Feb-20 01:59N 34°42' E 135°14'0 0.0
2018-Feb-20 01:28N 34°42' E 135°14'0 0.0
2018-Feb-20 00:59N 34°42' E 135°14'0 0.0
2018-Feb-20 00:29N 34°42' E 135°14'0 0.0
2018-Feb-19 23:58N 34°42' E 135°14'0 0.0
2018-Feb-19 23:29N 34°42' E 135°14'0 0.0
2018-Feb-19 22:58N 34°42' E 135°14'0 0.0
2018-Feb-19 22:28N 34°42' E 135°14'0 0.0
2018-Feb-19 21:58N 34°42' E 135°14'0 0.0
2018-Feb-19 21:25N 34°42' E 135°14'0 0.0
2018-Feb-19 20:58N 34°42' E 135°14'0 0.0
2018-Feb-19 20:28N 34°42' E 135°14'0 0.0
2018-Feb-19 19:55N 34°42' E 135°14'0 0.0
2018-Feb-19 19:28N 34°42' E 135°14'0 0.0
2018-Feb-19 18:58N 34°42' E 135°14'0 0.0
2018-Feb-19 18:28N 34°42' E 135°14'0 0.0
2018-Feb-19 17:58N 34°42' E 135°14'0 0.0
2018-Feb-19 17:28N 34°42' E 135°14'0 0.0
2018-Feb-19 16:58N 34°42' E 135°14'0 0.0
2018-Feb-19 16:28N 34°42' E 135°14'0 0.0
2018-Feb-19 15:58N 34°42' E 135°14'0 0.0
2018-Feb-19 15:28N 34°42' E 135°14'0 0.0
2018-Feb-19 14:58N 34°42' E 135°14'0 0.0
2018-Feb-19 14:28N 34°42' E 135°14'0 0.0
2018-Feb-19 13:58N 34°42' E 135°14'0 0.0
2018-Feb-19 13:28N 34°42' E 135°14'0 0.0
2018-Feb-19 12:58N 34°42' E 135°14'0 0.0
2018-Feb-19 12:30N 34°42' E 135°14'1 2.8
2018-Feb-19 12:00N 34°41' E 135°15'510.4
2018-Feb-19 11:30N 34°36' E 135°13'712.5
2018-Feb-19 10:59N 34°31' E 135°08'611.9
2018-Feb-19 10:29N 34°26' E 135°04'612.1
2018-Feb-19 10:00N 34°21' E 135°01'612.1
2018-Feb-19 09:29N 34°15' E 134°59'611.9
2018-Feb-19 09:00N 34°09' E 135°00'611.9
2018-Feb-19 08:29N 34°03' E 135°01'10 0.4
2018-Feb-18 07:31N 33°53' E 135°02'011.2
2018-Feb-18 07:30N 33°53' E 135°02'611.5
2018-Feb-18 06:59N 33°59' E 135°01'611.4
2018-Feb-18 06:28N 34°05' E 134°60'511.7
2018-Feb-18 06:00N 34°11' E 134°59'612.0
2018-Feb-18 05:28N 34°17' E 134°59'511.0
2018-Feb-18 05:00N 34°22' E 134°60'611.3
2018-Feb-18 04:30N 34°28' E 135°01'611.2
2018-Feb-18 04:00N 34°33' E 135°02'4 8.4
2018-Feb-18 03:30N 34°37' E 135°00'510.5
2018-Feb-18 03:00N 34°38' E 134°54'6 1.3
2018-Feb-17 22:35N 34°42' E 134°50'1 5.4
2018-Feb-17 22:25N 34°43' E 134°51'0 0.4
2018-Feb-17 21:48N 34°43' E 134°51'0 0.0
2018-Feb-17 21:30N 34°43' E 134°51'0 0.0
2018-Feb-17 21:00N 34°43' E 134°51'0 0.0
2018-Feb-17 20:30N 34°43' E 134°51'0 0.0
2018-Feb-17 19:54N 34°43' E 134°51'0 0.0
2018-Feb-17 19:24N 34°43' E 134°51'0 0.0
2018-Feb-17 19:00N 34°43' E 134°51'0 0.0
2018-Feb-17 18:30N 34°43' E 134°51'0 0.0
2018-Feb-17 18:00N 34°43' E 134°51'0 0.0
2018-Feb-17 17:30N 34°43' E 134°51'0 0.0
2018-Feb-17 16:54N 34°43' E 134°51'0 0.0
2018-Feb-17 16:24N 34°43' E 134°51'0 0.0
2018-Feb-17 16:00N 34°43' E 134°51'0 0.0
2018-Feb-17 15:30N 34°43' E 134°51'0 0.0
2018-Feb-17 14:54N 34°43' E 134°51'0 0.0
2018-Feb-17 14:30N 34°43' E 134°51'0 0.0
2018-Feb-17 14:00N 34°43' E 134°51'0 0.0
2018-Feb-17 13:30N 34°43' E 134°51'0 0.0
2018-Feb-17 13:00N 34°43' E 134°51'0 0.0
2018-Feb-17 12:30N 34°43' E 134°51'0 0.0
2018-Feb-17 12:00N 34°43' E 134°51'0 0.0
2018-Feb-17 11:18N 34°43' E 134°51'0 0.0
2018-Feb-17 10:54N 34°43' E 134°51'0 0.0
2018-Feb-17 10:30N 34°43' E 134°51'0 0.0
2018-Feb-17 10:00N 34°43' E 134°51'0 0.0
2018-Feb-17 09:30N 34°43' E 134°51'0 0.0
2018-Feb-17 09:00N 34°43' E 134°51'0 0.0
2018-Feb-17 08:18N 34°43' E 134°51'0 0.0
2018-Feb-17 08:00N 34°43' E 134°51'0 0.0
2018-Feb-17 07:30N 34°43' E 134°51'0 0.0
2018-Feb-17 06:48N 34°43' E 134°51'0 0.0
2018-Feb-17 06:30N 34°43' E 134°51'0 0.0
2018-Feb-17 06:00N 34°43' E 134°51'0 0.0
2018-Feb-17 05:30N 34°43' E 134°51'0 0.0
2018-Feb-17 04:18N 34°43' E 134°51'0 0.0
2018-Feb-17 04:00N 34°43' E 134°51'0 0.0
2018-Feb-17 03:24N 34°43' E 134°51'0 0.0
2018-Feb-17 02:54N 34°43' E 134°51'0 0.0
2018-Feb-17 02:27N 34°43' E 134°51'0 0.0
2018-Feb-17 02:00N 34°43' E 134°51'0 0.0
2018-Feb-17 00:30N 34°43' E 134°51'0 0.0
2018-Feb-17 00:00N 34°43' E 134°51'0 0.0
2018-Feb-16 23:30N 34°43' E 134°51'0 0.0
2018-Feb-16 23:00N 34°43' E 134°51'0 0.0
2018-Feb-16 22:24N 34°43' E 134°51'0 0.0
2018-Feb-16 22:00N 34°43' E 134°51'0 0.0
2018-Feb-16 21:24N 34°43' E 134°51'0 0.0
2018-Feb-16 21:00N 34°43' E 134°51'0 0.0
2018-Feb-16 20:30N 34°43' E 134°51'0 0.0
2018-Feb-16 20:00N 34°43' E 134°51'0 0.0
2018-Feb-16 19:24N 34°43' E 134°51'0 0.0
2018-Feb-16 19:00N 34°43' E 134°51'0 0.0
2018-Feb-16 18:30N 34°43' E 134°51'0 0.0
2018-Feb-16 17:56N 34°43' E 134°51'1 1.0
2018-Feb-16 17:02N 34°42' E 134°50'0 5.0
2018-Feb-16 17:00N 34°42' E 134°50'10 0.3
2018-Feb-15 06:18N 34°42' E 134°38'410.4
2018-Feb-15 05:54N 34°42' E 134°43'510.0
2018-Feb-15 05:23N 34°41' E 134°49'2 0.1
2018-Feb-14 02:01N 34°43' E 134°51'2 8.7
2018-Feb-14 01:47N 34°41' E 134°50'411.6
2018-Feb-14 01:25N 34°38' E 134°54'614.1
2018-Feb-14 01:00N 34°38' E 135°01'713.1
2018-Feb-14 00:30N 34°37' E 135°09'612.7
2018-Feb-14 00:00N 34°38' E 135°16'4 8.0
2018-Feb-13 23:30N 34°42' E 135°16'0 0.3
2018-Feb-13 22:59N 34°42' E 135°16'0 0.0
2018-Feb-13 22:29N 34°42' E 135°16'0 0.0
2018-Feb-13 21:59N 34°42' E 135°16'0 0.0
2018-Feb-13 21:30N 34°42' E 135°16'0 0.0
2018-Feb-13 21:00N 34°42' E 135°16'0 0.0
2018-Feb-13 20:30N 34°42' E 135°16'0 0.0
2018-Feb-13 20:00N 34°42' E 135°16'0 0.0
2018-Feb-13 19:30N 34°42' E 135°16'0 0.0
2018-Feb-13 19:00N 34°42' E 135°16'0 0.0
2018-Feb-13 18:27N 34°42' E 135°16'0 0.0
2018-Feb-13 18:00N 34°42' E 135°16'0 0.0
2018-Feb-13 17:30N 34°42' E 135°16'0 0.0
2018-Feb-13 17:00N 34°42' E 135°16'0 0.0
2018-Feb-13 16:30N 34°42' E 135°16'0 0.0
2018-Feb-13 16:00N 34°42' E 135°16'0 0.0
2018-Feb-13 15:30N 34°42' E 135°16'0 0.0
2018-Feb-13 15:00N 34°42' E 135°16'0 0.0
2018-Feb-13 14:30N 34°42' E 135°16'0 0.0
2018-Feb-13 14:00N 34°42' E 135°16'0 0.0
2018-Feb-13 13:30N 34°42' E 135°16'0 0.0
2018-Feb-13 13:00N 34°42' E 135°16'0 0.0
2018-Feb-13 12:30N 34°42' E 135°16'0 0.0
2018-Feb-13 12:00N 34°42' E 135°16'0 0.0
2018-Feb-13 11:30N 34°42' E 135°16'0 0.0
2018-Feb-13 11:00N 34°42' E 135°16'0 0.0
2018-Feb-13 10:30N 34°42' E 135°16'0 0.0
2018-Feb-13 10:00N 34°42' E 135°16'0 0.0
2018-Feb-13 09:30N 34°42' E 135°16'0 0.0
2018-Feb-13 09:00N 34°42' E 135°16'0 0.0
2018-Feb-13 08:30N 34°42' E 135°16'0 0.0
2018-Feb-13 08:00N 34°42' E 135°16'0 0.0
2018-Feb-13 07:30N 34°42' E 135°16'0 0.0
2018-Feb-13 07:00N 34°42' E 135°16'0 0.0
2018-Feb-13 06:30N 34°42' E 135°16'0 0.0
2018-Feb-13 06:00N 34°42' E 135°16'0 0.0
2018-Feb-13 05:30N 34°42' E 135°16'0 0.0
2018-Feb-13 05:00N 34°42' E 135°16'0 0.0
2018-Feb-13 04:29N 34°42' E 135°16'2 3.8
2018-Feb-13 04:00N 34°41' E 135°18'510.6
2018-Feb-13 03:30N 34°37' E 135°14'611.6
2018-Feb-13 02:59N 34°35' E 135°07'511.4
2018-Feb-13 02:30N 34°37' E 135°01'611.7
2018-Feb-13 02:00N 34°38' E 134°54'6 9.4
2018-Feb-13 01:22N 34°42' E 134°50'0 0.0
2018-Feb-13 00:28N 34°42' E 134°50'0 0.0
2018-Feb-12 23:52N 34°42' E 134°50'0 0.0
2018-Feb-12 23:10N 34°42' E 134°50'0 0.0
2018-Feb-12 22:58N 34°42' E 134°50'0 0.6
2018-Feb-12 22:28N 34°42' E 134°50'0 0.0
2018-Feb-12 21:16N 34°42' E 134°50'0 0.0
2018-Feb-12 17:10N 34°42' E 134°50'0 0.0
2018-Feb-12 16:58N 34°42' E 134°50'0 0.0
2018-Feb-12 13:09N 34°42' E 134°50'210.1
2018-Feb-12 13:00N 34°41' E 134°50'510.5
2018-Feb-12 12:30N 34°38' E 134°55'611.6
2018-Feb-12 12:00N 34°37' E 135°02'5 9.9
2018-Feb-12 11:30N 34°32' E 135°04'612.4
2018-Feb-12 11:00N 34°26' E 135°03'612.0
2018-Feb-12 10:30N 34°20' E 135°01'612.0
2018-Feb-12 10:00N 34°14' E 134°60'611.4
2018-Feb-12 09:29N 34°09' E 135°00'611.5
2018-Feb-12 09:00N 34°03' E 135°01'8 0.3
2018-Feb-11 06:45N 33°55' E 135°02'311.2
2018-Feb-11 06:27N 33°59' E 135°01'511.2
2018-Feb-11 05:59N 34°04' E 135°00'511.3
2018-Feb-11 05:30N 34°09' E 134°60'612.1
2018-Feb-11 05:00N 34°15' E 134°59'611.9
2018-Feb-11 04:30N 34°21' E 134°59'611.9
2018-Feb-11 04:00N 34°27' E 135°01'611.7
2018-Feb-11 03:30N 34°33' E 135°02'5 9.7
2018-Feb-11 03:00N 34°37' E 134°59'611.7
2018-Feb-11 02:30N 34°38' E 134°52'5 4.7
2018-Feb-11 01:30N 34°42' E 134°50'0 0.0
2018-Feb-10 23:24N 34°42' E 134°50'0 0.0
2018-Feb-10 22:54N 34°42' E 134°50'0 1.0
2018-Feb-10 22:30N 34°42' E 134°50'1 1.0
2018-Feb-10 21:45N 34°43' E 134°51'0 0.0
2018-Feb-10 21:27N 34°43' E 134°51'0 0.0
2018-Feb-10 20:45N 34°43' E 134°51'0 0.0
2018-Feb-10 20:27N 34°43' E 134°51'0 0.0
2018-Feb-10 19:51N 34°43' E 134°51'0 0.0
2018-Feb-10 19:27N 34°43' E 134°51'0 0.0
2018-Feb-10 18:51N 34°43' E 134°51'0 0.0
2018-Feb-10 18:27N 34°43' E 134°51'0 0.0
2018-Feb-10 17:57N 34°43' E 134°51'0 0.0
2018-Feb-10 17:27N 34°43' E 134°51'0 0.0
2018-Feb-10 16:57N 34°43' E 134°51'0 0.0
2018-Feb-10 16:27N 34°43' E 134°51'0 0.0
2018-Feb-10 15:57N 34°43' E 134°51'0 0.0
2018-Feb-10 15:27N 34°43' E 134°51'0 0.0
2018-Feb-10 14:57N 34°43' E 134°51'0 0.0
2018-Feb-10 14:27N 34°43' E 134°51'0 0.0
2018-Feb-10 13:57N 34°43' E 134°51'0 0.0
2018-Feb-10 13:27N 34°43' E 134°51'0 0.0
2018-Feb-10 12:57N 34°43' E 134°51'0 0.0
2018-Feb-10 12:27N 34°43' E 134°51'0 0.0
2018-Feb-10 11:57N 34°43' E 134°51'0 0.0
2018-Feb-10 11:27N 34°43' E 134°51'0 0.0
2018-Feb-10 10:27N 34°43' E 134°51'0 0.0
2018-Feb-10 09:57N 34°43' E 134°51'0 0.0
2018-Feb-10 09:21N 34°43' E 134°51'0 0.0
2018-Feb-10 08:33N 34°43' E 134°51'0 0.1
2018-Feb-10 08:27N 34°43' E 134°51'0 0.0
2018-Feb-10 07:45N 34°43' E 134°51'0 0.0
2018-Feb-10 07:27N 34°43' E 134°51'0 0.0
2018-Feb-10 06:57N 34°43' E 134°51'0 0.0
2018-Feb-10 06:27N 34°43' E 134°51'0 0.0
2018-Feb-10 05:57N 34°43' E 134°51'0 0.0
2018-Feb-10 05:27N 34°43' E 134°51'0 0.0
2018-Feb-10 04:51N 34°43' E 134°51'0 0.0
2018-Feb-10 03:51N 34°43' E 134°51'  
Track history (hours):
 
Tides and Currents Weather Stations Pressure Air Temp Water Temp Dewpoint Dewpoint Depression Visibility Wind Speed Wind Dir Waves Ship Positions

No.16 Zen Maru

Last reported at 2018-Feb-20 03:28 UTC. Time now 2018-Feb-20 03:53 UTC.
Position N 34°42' E 135°14'.

Length 70 m.

Type: Ship. MMSI: 431300421.

Date/timePositionNaut miles runAvg speedWind from/ knotsBaromVisibWave heightAir tempDewpointWater temp
2018-Feb-20 03:28N 34°42' E 135°14'0 0.0
2018-Feb-20 02:58N 34°42' E 135°14'0 0.0
2018-Feb-20 02:28N 34°42' E 135°14'0 0.0
2018-Feb-20 01:59N 34°42' E 135°14'0 0.0
2018-Feb-20 01:28N 34°42' E 135°14'0 0.0
2018-Feb-20 00:59N 34°42' E 135°14'0 0.0
2018-Feb-20 00:29N 34°42' E 135°14'0 0.0
2018-Feb-19 23:58N 34°42' E 135°14'0 0.0
2018-Feb-19 23:29N 34°42' E 135°14'0 0.0
2018-Feb-19 22:58N 34°42' E 135°14'0 0.0
2018-Feb-19 22:28N 34°42' E 135°14'0 0.0
2018-Feb-19 21:58N 34°42' E 135°14'0 0.0
2018-Feb-19 21:25N 34°42' E 135°14'0 0.0
2018-Feb-19 20:58N 34°42' E 135°14'0 0.0
2018-Feb-19 20:28N 34°42' E 135°14'0 0.0
2018-Feb-19 19:55N 34°42' E 135°14'0 0.0
2018-Feb-19 19:28N 34°42' E 135°14'0 0.0
2018-Feb-19 18:58N 34°42' E 135°14'0 0.0
2018-Feb-19 18:28N 34°42' E 135°14'0 0.0
2018-Feb-19 17:58N 34°42' E 135°14'0 0.0
2018-Feb-19 17:28N 34°42' E 135°14'0 0.0
2018-Feb-19 16:58N 34°42' E 135°14'0 0.0
2018-Feb-19 16:28N 34°42' E 135°14'0 0.0
2018-Feb-19 15:58N 34°42' E 135°14'0 0.0
2018-Feb-19 15:28N 34°42' E 135°14'0 0.0
2018-Feb-19 14:58N 34°42' E 135°14'0 0.0
2018-Feb-19 14:28N 34°42' E 135°14'0 0.0
2018-Feb-19 13:58N 34°42' E 135°14'0 0.0
2018-Feb-19 13:28N 34°42' E 135°14'0 0.0
2018-Feb-19 12:58N 34°42' E 135°14'0 0.0
2018-Feb-19 12:30N 34°42' E 135°14'1 2.8
2018-Feb-19 12:00N 34°41' E 135°15'510.4
2018-Feb-19 11:30N 34°36' E 135°13'712.5
2018-Feb-19 10:59N 34°31' E 135°08'611.9
2018-Feb-19 10:29N 34°26' E 135°04'612.1
2018-Feb-19 10:00N 34°21' E 135°01'612.1
2018-Feb-19 09:29N 34°15' E 134°59'611.9
2018-Feb-19 09:00N 34°09' E 135°00'611.9
2018-Feb-19 08:29N 34°03' E 135°01'10 0.4
2018-Feb-18 07:31N 33°53' E 135°02'011.2
2018-Feb-18 07:30N 33°53' E 135°02'611.5
2018-Feb-18 06:59N 33°59' E 135°01'611.4
2018-Feb-18 06:28N 34°05' E 134°60'511.7
2018-Feb-18 06:00N 34°11' E 134°59'612.0
2018-Feb-18 05:28N 34°17' E 134°59'511.0
2018-Feb-18 05:00N 34°22' E 134°60'611.3
2018-Feb-18 04:30N 34°28' E 135°01'611.2
2018-Feb-18 04:00N 34°33' E 135°02'4 8.4
2018-Feb-18 03:30N 34°37' E 135°00'510.5
2018-Feb-18 03:00N 34°38' E 134°54'6 1.3
2018-Feb-17 22:35N 34°42' E 134°50'1 5.4
2018-Feb-17 22:25N 34°43' E 134°51'0 0.4
2018-Feb-17 21:48N 34°43' E 134°51'0 0.0
2018-Feb-17 21:30N 34°43' E 134°51'0 0.0
2018-Feb-17 21:00N 34°43' E 134°51'0 0.0
2018-Feb-17 20:30N 34°43' E 134°51'0 0.0
2018-Feb-17 19:54N 34°43' E 134°51'0 0.0
2018-Feb-17 19:24N 34°43' E 134°51'0 0.0
2018-Feb-17 19:00N 34°43' E 134°51'0 0.0
2018-Feb-17 18:30N 34°43' E 134°51'0 0.0
2018-Feb-17 18:00N 34°43' E 134°51'0 0.0
2018-Feb-17 17:30N 34°43' E 134°51'0 0.0
2018-Feb-17 16:54N 34°43' E 134°51'0 0.0
2018-Feb-17 16:24N 34°43' E 134°51'0 0.0
2018-Feb-17 16:00N 34°43' E 134°51'0 0.0
2018-Feb-17 15:30N 34°43' E 134°51'0 0.0
2018-Feb-17 14:54N 34°43' E 134°51'0 0.0
2018-Feb-17 14:30N 34°43' E 134°51'0 0.0
2018-Feb-17 14:00N 34°43' E 134°51'0 0.0
2018-Feb-17 13:30N 34°43' E 134°51'0 0.0
2018-Feb-17 13:00N 34°43' E 134°51'0 0.0
2018-Feb-17 12:30N 34°43' E 134°51'0 0.0
2018-Feb-17 12:00N 34°43' E 134°51'0 0.0
2018-Feb-17 11:18N 34°43' E 134°51'0 0.0
2018-Feb-17 10:54N 34°43' E 134°51'0 0.0
2018-Feb-17 10:30N 34°43' E 134°51'0 0.0
2018-Feb-17 10:00N 34°43' E 134°51'0 0.0
2018-Feb-17 09:30N 34°43' E 134°51'0 0.0
2018-Feb-17 09:00N 34°43' E 134°51'0 0.0
2018-Feb-17 08:18N 34°43' E 134°51'0 0.0
2018-Feb-17 08:00N 34°43' E 134°51'0 0.0
2018-Feb-17 07:30N 34°43' E 134°51'0 0.0
2018-Feb-17 06:48N 34°43' E 134°51'0 0.0
2018-Feb-17 06:30N 34°43' E 134°51'0 0.0
2018-Feb-17 06:00N 34°43' E 134°51'0 0.0
2018-Feb-17 05:30N 34°43' E 134°51'0 0.0
2018-Feb-17 04:18N 34°43' E 134°51'0 0.0
2018-Feb-17 04:00N 34°43' E 134°51'0 0.0
2018-Feb-17 03:24N 34°43' E 134°51'0 0.0
2018-Feb-17 02:54N 34°43' E 134°51'0 0.0
2018-Feb-17 02:27N 34°43' E 134°51'0 0.0
2018-Feb-17 02:00N 34°43' E 134°51'0 0.0
2018-Feb-17 00:30N 34°43' E 134°51'0 0.0
2018-Feb-17 00:00N 34°43' E 134°51'0 0.0
2018-Feb-16 23:30N 34°43' E 134°51'0 0.0
2018-Feb-16 23:00N 34°43' E 134°51'0 0.0
2018-Feb-16 22:24N 34°43' E 134°51'0 0.0
2018-Feb-16 22:00N 34°43' E 134°51'0 0.0
2018-Feb-16 21:24N 34°43' E 134°51'0 0.0
2018-Feb-16 21:00N 34°43' E 134°51'0 0.0
2018-Feb-16 20:30N 34°43' E 134°51'0 0.0
2018-Feb-16 20:00N 34°43' E 134°51'0 0.0
2018-Feb-16 19:24N 34°43' E 134°51'0 0.0
2018-Feb-16 19:00N 34°43' E 134°51'0 0.0
2018-Feb-16 18:30N 34°43' E 134°51'0 0.0
2018-Feb-16 17:56N 34°43' E 134°51'1 1.0
2018-Feb-16 17:02N 34°42' E 134°50'0 5.0
2018-Feb-16 17:00N 34°42' E 134°50'10 0.3
2018-Feb-15 06:18N 34°42' E 134°38'410.4
2018-Feb-15 05:54N 34°42' E 134°43'510.0
2018-Feb-15 05:23N 34°41' E 134°49'2 0.1
2018-Feb-14 02:01N 34°43' E 134°51'2 8.7
2018-Feb-14 01:47N 34°41' E 134°50'411.6
2018-Feb-14 01:25N 34°38' E 134°54'614.1
2018-Feb-14 01:00N 34°38' E 135°01'713.1
2018-Feb-14 00:30N 34°37' E 135°09'612.7
2018-Feb-14 00:00N 34°38' E 135°16'4 8.0
2018-Feb-13 23:30N 34°42' E 135°16'0 0.3
2018-Feb-13 22:59N 34°42' E 135°16'0 0.0
2018-Feb-13 22:29N 34°42' E 135°16'0 0.0
2018-Feb-13 21:59N 34°42' E 135°16'0 0.0
2018-Feb-13 21:30N 34°42' E 135°16'0 0.0
2018-Feb-13 21:00N 34°42' E 135°16'0 0.0
2018-Feb-13 20:30N 34°42' E 135°16'0 0.0
2018-Feb-13 20:00N 34°42' E 135°16'0 0.0
2018-Feb-13 19:30N 34°42' E 135°16'0 0.0
2018-Feb-13 19:00N 34°42' E 135°16'0 0.0
2018-Feb-13 18:27N 34°42' E 135°16'0 0.0
2018-Feb-13 18:00N 34°42' E 135°16'0 0.0
2018-Feb-13 17:30N 34°42' E 135°16'0 0.0
2018-Feb-13 17:00N 34°42' E 135°16'0 0.0
2018-Feb-13 16:30N 34°42' E 135°16'0 0.0
2018-Feb-13 16:00N 34°42' E 135°16'0 0.0
2018-Feb-13 15:30N 34°42' E 135°16'0 0.0
2018-Feb-13 15:00N 34°42' E 135°16'0 0.0
2018-Feb-13 14:30N 34°42' E 135°16'0 0.0
2018-Feb-13 14:00N 34°42' E 135°16'0 0.0
2018-Feb-13 13:30N 34°42' E 135°16'0 0.0
2018-Feb-13 13:00N 34°42' E 135°16'0 0.0
2018-Feb-13 12:30N 34°42' E 135°16'0 0.0
2018-Feb-13 12:00N 34°42' E 135°16'0 0.0
2018-Feb-13 11:30N 34°42' E 135°16'0 0.0
2018-Feb-13 11:00N 34°42' E 135°16'0 0.0
2018-Feb-13 10:30N 34°42' E 135°16'0 0.0
2018-Feb-13 10:00N 34°42' E 135°16'0 0.0
2018-Feb-13 09:30N 34°42' E 135°16'0 0.0
2018-Feb-13 09:00N 34°42' E 135°16'0 0.0
2018-Feb-13 08:30N 34°42' E 135°16'0 0.0
2018-Feb-13 08:00N 34°42' E 135°16'0 0.0
2018-Feb-13 07:30N 34°42' E 135°16'0 0.0
2018-Feb-13 07:00N 34°42' E 135°16'0 0.0
2018-Feb-13 06:30N 34°42' E 135°16'0 0.0
2018-Feb-13 06:00N 34°42' E 135°16'0 0.0
2018-Feb-13 05:30N 34°42' E 135°16'0 0.0
2018-Feb-13 05:00N 34°42' E 135°16'0 0.0
2018-Feb-13 04:29N 34°42' E 135°16'2 3.8
2018-Feb-13 04:00N 34°41' E 135°18'510.6
2018-Feb-13 03:30N 34°37' E 135°14'611.6
2018-Feb-13 02:59N 34°35' E 135°07'511.4
2018-Feb-13 02:30N 34°37' E 135°01'611.7
2018-Feb-13 02:00N 34°38' E 134°54'6 9.4
2018-Feb-13 01:22N 34°42' E 134°50'0 0.0
2018-Feb-13 00:28N 34°42' E 134°50'0 0.0
2018-Feb-12 23:52N 34°42' E 134°50'0 0.0
2018-Feb-12 23:10N 34°42' E 134°50'0 0.0
2018-Feb-12 22:58N 34°42' E 134°50'0 0.6
2018-Feb-12 22:28N 34°42' E 134°50'0 0.0
2018-Feb-12 21:16N 34°42' E 134°50'0 0.0
2018-Feb-12 17:10N 34°42' E 134°50'0 0.0
2018-Feb-12 16:58N 34°42' E 134°50'0 0.0
2018-Feb-12 13:09N 34°42' E 134°50'210.1
2018-Feb-12 13:00N 34°41' E 134°50'510.5
2018-Feb-12 12:30N 34°38' E 134°55'611.6
2018-Feb-12 12:00N 34°37' E 135°02'5 9.9
2018-Feb-12 11:30N 34°32' E 135°04'612.4
2018-Feb-12 11:00N 34°26' E 135°03'612.0
2018-Feb-12 10:30N 34°20' E 135°01'612.0
2018-Feb-12 10:00N 34°14' E 134°60'611.4
2018-Feb-12 09:29N 34°09' E 135°00'611.5
2018-Feb-12 09:00N 34°03' E 135°01'8 0.3
2018-Feb-11 06:45N 33°55' E 135°02'311.2
2018-Feb-11 06:27N 33°59' E 135°01'511.2
2018-Feb-11 05:59N 34°04' E 135°00'511.3
2018-Feb-11 05:30N 34°09' E 134°60'612.1
2018-Feb-11 05:00N 34°15' E 134°59'611.9
2018-Feb-11 04:30N 34°21' E 134°59'611.9
2018-Feb-11 04:00N 34°27' E 135°01'611.7
2018-Feb-11 03:30N 34°33' E 135°02'5 9.7
2018-Feb-11 03:00N 34°37' E 134°59'611.7
2018-Feb-11 02:30N 34°38' E 134°52'5 4.7
2018-Feb-11 01:30N 34°42' E 134°50'0 0.0
2018-Feb-10 23:24N 34°42' E 134°50'0 0.0
2018-Feb-10 22:54N 34°42' E 134°50'0 1.0
2018-Feb-10 22:30N 34°42' E 134°50'1 1.0
2018-Feb-10 21:45N 34°43' E 134°51'0 0.0
2018-Feb-10 21:27N 34°43' E 134°51'0 0.0
2018-Feb-10 20:45N 34°43' E 134°51'0 0.0
2018-Feb-10 20:27N 34°43' E 134°51'0 0.0
2018-Feb-10 19:51N 34°43' E 134°51'0 0.0
2018-Feb-10 19:27N 34°43' E 134°51'0 0.0
2018-Feb-10 18:51N 34°43' E 134°51'0 0.0
2018-Feb-10 18:27N 34°43' E 134°51'0 0.0
2018-Feb-10 17:57N 34°43' E 134°51'0 0.0
2018-Feb-10 17:27N 34°43' E 134°51'0 0.0
2018-Feb-10 16:57N 34°43' E 134°51'0 0.0
2018-Feb-10 16:27N 34°43' E 134°51'0 0.0
2018-Feb-10 15:57N 34°43' E 134°51'0 0.0
2018-Feb-10 15:27N 34°43' E 134°51'0 0.0
2018-Feb-10 14:57N 34°43' E 134°51'0 0.0
2018-Feb-10 14:27N 34°43' E 134°51'0 0.0
2018-Feb-10 13:57N 34°43' E 134°51'0 0.0
2018-Feb-10 13:27N 34°43' E 134°51'0 0.0
2018-Feb-10 12:57N 34°43' E 134°51'0 0.0
2018-Feb-10 12:27N 34°43' E 134°51'0 0.0
2018-Feb-10 11:57N 34°43' E 134°51'0 0.0
2018-Feb-10 11:27N 34°43' E 134°51'0 0.0
2018-Feb-10 10:27N 34°43' E 134°51'0 0.0
2018-Feb-10 09:57N 34°43' E 134°51'0 0.0
2018-Feb-10 09:21N 34°43' E 134°51'0 0.0
2018-Feb-10 08:33N 34°43' E 134°51'0 0.1
2018-Feb-10 08:27N 34°43' E 134°51'0 0.0
2018-Feb-10 07:45N 34°43' E 134°51'0 0.0
2018-Feb-10 07:27N 34°43' E 134°51'0 0.0
2018-Feb-10 06:57N 34°43' E 134°51'0 0.0
2018-Feb-10 06:27N 34°43' E 134°51'0 0.0
2018-Feb-10 05:57N 34°43' E 134°51'0 0.0
2018-Feb-10 05:27N 34°43' E 134°51'0 0.0
2018-Feb-10 04:51N 34°43' E 134°51'0 0.0
2018-Feb-10 03:51N 34°43' E 134°51'  

Dump ship's entire track history